Terminal Aerodrome Forecast
Issued by NWS

Home | Current Version | Previous Version | Text Only | Print | Product List | Glossary On
Versions: 1 2 3 4 5 6 7 8 9 10 11 12 13 14 15 16 17 18 19 20 21 22 23 24 25 26 27 28 29 30 31
000
FTUS46 KSEW 302329
TAFSEA
TAF
KSEA 302329Z 0100/0206 26007KT P6SM FEW030 FEW200
     FM010400 21004KT P6SM BKN070 BKN200
     FM011200 17008KT P6SM BKN050
     FM011500 17010KT P6SM VCSH SCT025 OVC050
     FM011900 19012KT 6SM -SHRA SCT025 OVC050
     FM020000 20011KT 6SM -SHRA SCT020 OVC050=

USA.gov is the U.S. government's official web portal to all federal, state and local government web resources and services.